メインページ
METAR-TAF:

METAR-TAF

空港 :

アテネ国際空港

アテネ, ギリシャ

緯度: 37-56N, 経度: 023-56E, 海抜: 94m

現時点の気象観測

当レポートは13分前の08:20(UTC)に作成
北東の風 17kt
気温 24°C
湿度 54%
気圧 1014 hPa
視程10km以上
高度3000ftの雲はほとんどない

METAR: LGAV 210820Z 04017KT 9999 FEW030 24/14 Q1014 NOSIG

時間: 11:33 (08:33 UTC)

予報

当レポートは3時間33分前の05:00(UTC)に作成
予報は21日の 06時(UTC)から 22日の 06時(UTC)まで有効
北東の風 12kt
視程10km以上
高度3000ftの雲はほとんどない
21日の 09時(UTC)から 21日の 18時(UTC)まで一時的に
北東の風 15kt、最大25ktの突風を伴う

TAF: LGAV 210500Z 2106/2206 05012KT 9999 FEW030 TEMPO 2109/2118 05015G25KT

4,000以上の空港の気象観測と天気予報(METAR報とTAF報)

利用可能な観測所は地図上に黄色い丸と赤い丸で示す。

丸の上にカーソルを重ねると観測所名を参照できる。

次にクリックすると気象観測と天気予報を参照できる。

マップの切り替え:黒色「×」印の緑ボタンをクリックして拡大、「-」印の緑ボタンをクリックして縮小、緑色の三角印をクリックして隣りの地図に切り替え


METAR-TAF: